Time;durP1;ratioP1;P1;durP2;ratioP2;P2;SDS_P1;SDS_P2;PMS_P1;PMS_P2;Temp;Humidity;BMP_temperature;BMP_pressure;BME280_temperature;BME280_humidity;BME280_pressure;Samples;Min_cycle;Max_cycle;Signal;HPM_P1;HPM_P2
2022/10/04 00:01:39;;;;;;;7.95;7.15;;;;;;;;;;5071364;28;20088;-69
2022/10/04 00:04:29;;;;;;;10.80;7.60;;;;;;;;;;5070276;28;20052;-69
2022/10/04 00:07:10;;;;;;;8.98;7.47;;;;;;;;;;5034449;28;20048;-69
2022/10/04 00:09:53;;;;;;;7.40;6.68;;;;;;;;;;5050265;28;20494;-69
2022/10/04 00:12:24;;;;;;;9.05;7.20;;;;;;;;;;5050353;28;20045;-69
2022/10/04 00:14:51;;;;;;;7.55;6.82;;;;;;;;;;5051531;28;20049;-69
2022/10/04 00:17:26;;;;;;;6.82;5.90;;;;;;;;;;5053386;28;20057;-69
2022/10/04 00:19:53;;;;;;;6.82;6.13;;;;;;;;;;5070075;28;20131;-68
2022/10/04 00:22:28;;;;;;;8.63;7.25;;;;;;;;;;5071301;28;20143;-68
2022/10/04 00:25:07;;;;;;;7.80;7.00;;;;;;;;;;5071212;28;20098;-69
2022/10/04 00:27:37;;;;;;;7.50;6.75;;;;;;;;;;5071277;28;20044;-68
2022/10/04 00:30:03;;;;;;;10.77;6.88;;;;;;;;;;5069741;28;20044;-68
2022/10/04 00:32:44;;;;;;;9.30;6.68;;;;;;;;;;5071196;28;20091;-68
2022/10/04 00:35:26;;;;;;;11.43;7.03;;;;;;;;;;5071275;28;20053;-69
2022/10/04 00:37:56;;;;;;;10.43;7.13;;;;;;;;;;5070740;28;20048;-68
2022/10/04 00:40:24;;;;;;;10.75;7.07;;;;;;;;;;5071014;28;20098;-68
2022/10/04 00:42:59;;;;;;;9.65;7.07;;;;;;;;;;5054635;28;20080;-69
2022/10/04 00:45:36;;;;;;;11.48;7.43;;;;;;;;;;5057555;28;20475;-69
2022/10/04 00:48:30;;;;;;;7.97;6.82;;;;;;;;;;5073177;28;20132;-68
2022/10/04 00:51:22;;;;;;;13.18;7.07;;;;;;;;;;5074398;28;20513;-69
2022/10/04 00:54:06;;;;;;;7.65;6.72;;;;;;;;;;5074613;28;20083;-68
2022/10/04 00:56:50;;;;;;;7.95;7.15;;;;;;;;;;5074508;28;20080;-68
2022/10/04 00:59:19;;;;;;;9.90;7.57;;;;;;;;;;5072977;28;20059;-69
2022/10/04 01:01:48;;;;;;;9.63;7.55;;;;;;;;;;5074254;28;20463;-68
2022/10/04 01:04:27;;;;;;;12.60;6.93;;;;;;;;;;5073383;28;20052;-68
2022/10/04 01:06:57;;;;;;;10.48;7.57;;;;;;;;;;5073073;28;20135;-69
2022/10/04 01:09:23;;;;;;;9.00;6.95;;;;;;;;;;5072663;28;20129;-68
2022/10/04 01:11:57;;;;;;;11.38;7.88;;;;;;;;;;5073963;28;20098;-69
2022/10/04 01:14:30;;;;;;;11.55;7.47;;;;;;;;;;5056978;28;20461;-68
2022/10/04 01:16:56;;;;;;;11.70;6.70;;;;;;;;;;5074087;28;20584;-68
2022/10/04 01:19:25;;;;;;;9.73;6.70;;;;;;;;;;5073649;28;20457;-68
2022/10/04 01:22:04;;;;;;;19.05;6.45;;;;;;;;;;5072983;28;20103;-68
2022/10/04 01:24:37;;;;;;;7.68;6.93;;;;;;;;;;5072844;28;20122;-68
2022/10/04 01:27:06;;;;;;;12.55;7.03;;;;;;;;;;5074020;28;20464;-68
2022/10/04 01:29:32;;;;;;;7.57;6.85;;;;;;;;;;5056194;28;20094;-69
2022/10/04 01:31:59;;;;;;;9.95;6.75;;;;;;;;;;5056108;28;20358;-68
2022/10/04 01:34:27;;;;;;;13.15;7.20;;;;;;;;;;5073790;28;20060;-68
2022/10/04 01:36:56;;;;;;;6.68;5.88;;;;;;;;;;5056112;28;20087;-68
2022/10/04 01:39:24;;;;;;;12.63;5.70;;;;;;;;;;5073540;28;20044;-68
2022/10/04 01:42:26;;;;;;;8.55;6.10;;;;;;;;;;5072294;28;20131;-68
2022/10/04 01:45:03;;;;;;;7.22;6.50;;;;;;;;;;5073589;28;20094;-68
2022/10/04 01:48:12;;;;;;;8.40;6.13;;;;;;;;;;5072581;28;20134;-68
2022/10/04 01:50:46;;;;;;;7.97;7.00;;;;;;;;;;5014170;28;20136;-69
2022/10/04 01:53:23;;;;;;;7.85;6.93;;;;;;;;;;5052254;28;20075;-68
2022/10/04 01:55:51;;;;;;;7.65;6.65;;;;;;;;;;5056161;28;20084;-69
2022/10/04 01:58:20;;;;;;;15.05;7.25;;;;;;;;;;5055368;28;20080;-69
2022/10/04 02:00:54;;;;;;;12.02;7.07;;;;;;;;;;5055628;28;20084;-69
2022/10/04 02:03:35;;;;;;;13.95;6.78;;;;;;;;;;5056229;28;20106;-68
2022/10/04 02:06:03;;;;;;;11.82;7.93;;;;;;;;;;5071843;28;20109;-68
2022/10/04 02:08:32;;;;;;;14.30;7.03;;;;;;;;;;5055567;28;20143;-68
2022/10/04 02:11:00;;;;;;;12.88;7.10;;;;;;;;;;5055469;28;20056;-68
2022/10/04 02:13:28;;;;;;;10.95;6.65;;;;;;;;;;5055411;28;20143;-68
2022/10/04 02:15:55;;;;;;;11.75;6.50;;;;;;;;;;5055669;28;20450;-69
2022/10/04 02:18:22;;;;;;;14.48;6.82;;;;;;;;;;5054968;28;20059;-68
2022/10/04 02:20:49;;;;;;;15.02;6.70;;;;;;;;;;5072851;28;20122;-69
2022/10/04 02:23:17;;;;;;;15.68;7.13;;;;;;;;;;5071846;28;20139;-68
2022/10/04 02:25:44;;;;;;;10.10;6.97;;;;;;;;;;5071802;28;20135;-69
2022/10/04 02:28:12;;;;;;;13.25;6.65;;;;;;;;;;5073293;28;20080;-69
2022/10/04 02:32:56;;;;;;;15.52;5.85;;;;;;;;;;5071440;28;20055;-69
2022/10/04 02:33:31;;;;;;;12.60;6.80;;;;;;;;;;5058433;28;20102;-69
2022/10/04 02:35:58;;;;;;;15.30;6.13;;;;;;;;;;5071592;28;20187;-69
2022/10/04 02:38:29;;;;;;;6.50;5.82;;;;;;;;;;5054584;28;20060;-69
2022/10/04 02:41:03;;;;;;;14.95;6.53;;;;;;;;;;5072331;28;20068;-68
2022/10/04 02:43:36;;;;;;;27.33;6.32;;;;;;;;;;5071237;28;20113;-68
2022/10/04 02:46:49;;;;;;;7.35;5.13;;;;;;;;;;5071379;28;20131;-69
2022/10/04 02:49:36;;;;;;;8.13;5.75;;;;;;;;;;5069719;28;20048;-68
2022/10/04 02:52:30;;;;;;;6.47;5.40;;;;;;;;;;5056948;28;20066;-69
2022/10/04 02:55:20;;;;;;;;;;;;;;;;;;5067204;28;20084;-69
2022/10/04 02:57:48;;;;;;;5.57;4.85;;;;;;;;;;5066521;28;19970;-68
2022/10/04 03:00:15;;;;;;;6.05;4.85;;;;;;;;;;5070839;28;20045;-69
2022/10/04 03:03:02;;;;;;;5.20;4.70;;;;;;;;;;5071984;28;20579;-69
2022/10/04 03:05:28;;;;;;;5.63;4.93;;;;;;;;;;5070518;28;20091;-69
2022/10/04 03:07:55;;;;;;;5.97;5.22;;;;;;;;;;5071857;28;20424;-69
2022/10/04 03:10:23;;;;;;;5.63;5.05;;;;;;;;;;5070720;28;20083;-68
2022/10/04 03:12:50;;;;;;;5.10;4.57;;;;;;;;;;5072186;28;20072;-69
2022/10/04 03:15:17;;;;;;;5.60;4.80;;;;;;;;;;5070735;28;20143;-68
2022/10/04 03:17:43;;;;;;;4.90;4.50;;;;;;;;;;5072028;28;20087;-68
2022/10/04 03:20:13;;;;;;;5.38;4.88;;;;;;;;;;5070615;28;20502;-68
2022/10/04 03:22:40;;;;;;;5.28;4.78;;;;;;;;;;5071901;28;20083;-69
2022/10/04 03:25:15;;;;;;;5.30;4.78;;;;;;;;;;5054999;28;20418;-68
2022/10/04 03:27:41;;;;;;;5.10;4.60;;;;;;;;;;5070685;28;20141;-68
2022/10/04 03:30:14;;;;;;;6.13;5.30;;;;;;;;;;5071608;28;20419;-69
2022/10/04 03:32:41;;;;;;;18.48;13.55;;;;;;;;;;5070630;28;20121;-69
2022/10/04 03:35:28;;;;;;;10.07;8.20;;;;;;;;;;5070524;28;20135;-68
2022/10/04 03:37:56;;;;;;;15.75;9.77;;;;;;;;;;5071445;28;20469;-69
2022/10/04 03:40:27;;;;;;;14.48;10.85;;;;;;;;;;5070336;28;20578;-68
2022/10/04 03:42:54;;;;;;;13.45;11.30;;;;;;;;;;5053966;28;20503;-69
2022/10/04 03:45:21;;;;;;;17.48;14.10;;;;;;;;;;5071757;28;20096;-68
2022/10/04 03:47:49;;;;;;;18.50;12.70;;;;;;;;;;5071618;28;20136;-68
2022/10/04 03:50:23;;;;;;;16.00;11.50;;;;;;;;;;5070317;28;20045;-68
2022/10/04 03:52:57;;;;;;;12.45;9.57;;;;;;;;;;5070610;28;20099;-69
2022/10/04 03:55:35;;;;;;;10.43;8.70;;;;;;;;;;5070417;28;20091;-69
2022/10/04 03:58:01;;;;;;;11.77;6.25;;;;;;;;;;5053753;28;20495;-70
2022/10/04 04:00:28;;;;;;;9.13;6.32;;;;;;;;;;5071774;28;20135;-69
2022/10/04 04:02:59;;;;;;;7.78;4.90;;;;;;;;;;5063828;28;20132;-69
2022/10/04 04:05:30;;;;;;;24.25;6.35;;;;;;;;;;5051407;28;20472;-69
2022/10/04 04:08:13;;;;;;;8.45;5.45;;;;;;;;;;5051428;28;20083;-69
2022/10/04 04:10:49;;;;;;;11.45;5.72;;;;;;;;;;5043830;28;20056;-68
2022/10/04 04:13:21;;;;;;;8.00;5.43;;;;;;;;;;5054373;28;20052;-68
2022/10/04 04:15:48;;;;;;;7.47;5.57;;;;;;;;;;5071760;28;20147;-69
2022/10/04 04:18:21;;;;;;;7.75;6.10;;;;;;;;;;5071479;28;20048;-68
2022/10/04 04:20:50;;;;;;;8.18;5.40;;;;;;;;;;5074993;28;20506;-69
2022/10/04 04:23:25;;;;;;;7.03;6.22;;;;;;;;;;5057606;28;20148;-69
2022/10/04 04:25:54;;;;;;;7.18;5.40;;;;;;;;;;5058303;28;20140;-69
2022/10/04 04:28:35;;;;;;;10.52;8.50;;;;;;;;;;5057063;28;20113;-69
2022/10/04 04:31:12;;;;;;;9.30;7.22;;;;;;;;;;5075033;28;20048;-68
2022/10/04 04:34:14;;;;;;;11.80;7.03;;;;;;;;;;5073691;28;20080;-69
2022/10/04 04:36:40;;;;;;;8.13;7.13;;;;;;;;;;5069909;28;20169;-68
2022/10/04 04:41:56;;;;;;;9.65;8.02;;;;;;;;;;5073633;28;20495;-68
2022/10/04 04:44:23;;;;;;;8.23;7.20;;;;;;;;;;5072982;28;20091;-68
2022/10/04 04:46:49;;;;;;;8.55;7.65;;;;;;;;;;5073485;28;20080;-68
2022/10/04 04:49:16;;;;;;;8.65;7.82;;;;;;;;;;5056940;28;20079;-70
2022/10/04 04:51:49;;;;;;;11.77;8.60;;;;;;;;;;5074393;28;20136;-68
2022/10/04 04:54:17;;;;;;;8.70;7.90;;;;;;;;;;5057570;28;20072;-67
2022/10/04 04:56:46;;;;;;;21.38;7.32;;;;;;;;;;5074647;28;20139;-68
2022/10/04 04:59:12;;;;;;;33.47;8.23;;;;;;;;;;5073304;28;20136;-69
2022/10/04 05:01:46;;;;;;;9.85;6.43;;;;;;;;;;5067382;28;20480;-69
2022/10/04 05:04:17;;;;;;;13.45;6.72;;;;;;;;;;5055304;28;20056;-69
2022/10/04 05:07:03;;;;;;;8.45;6.85;;;;;;;;;;5058461;28;20072;-68
2022/10/04 05:12:20;;;;;;;11.98;8.82;;;;;;;;;;5115845;22;20052;-69
2022/10/04 05:14:51;;;;;;;10.65;9.15;;;;;;;;;;5094891;28;20052;-69
2022/10/04 05:17:23;;;;;;;7.93;7.13;;;;;;;;;;5095284;28;20080;-70
2022/10/04 05:19:50;;;;;;;9.40;8.50;;;;;;;;;;5093212;28;20127;-69
2022/10/04 05:22:19;;;;;;;11.13;8.27;;;;;;;;;;5076527;28;20557;-70
2022/10/04 05:24:47;;;;;;;10.95;8.75;;;;;;;;;;5076994;28;20073;-69
2022/10/04 05:27:26;;;;;;;9.35;6.10;;;;;;;;;;5093617;28;20126;-70
2022/10/04 05:30:26;;;;;;;7.35;6.63;;;;;;;;;;5077478;28;20101;-70
2022/10/04 05:33:10;;;;;;;7.53;6.70;;;;;;;;;;5094247;28;20079;-70
2022/10/04 05:35:51;;;;;;;7.03;6.32;;;;;;;;;;5094661;28;20091;-70
2022/10/04 05:38:45;;;;;;;8.25;6.70;;;;;;;;;;5093154;28;20098;-70
2022/10/04 05:41:28;;;;;;;6.65;5.93;;;;;;;;;;5094363;28;20474;-69
2022/10/04 05:44:00;;;;;;;6.20;5.60;;;;;;;;;;5078415;28;20490;-69
2022/10/04 05:46:27;;;;;;;5.00;4.50;;;;;;;;;;5094157;28;20075;-70
2022/10/04 05:49:07;;;;;;;6.35;4.93;;;;;;;;;;5094387;28;20305;-70
2022/10/04 05:51:36;;;;;;;7.50;6.32;;;;;;;;;;5094083;28;20102;-70
2022/10/04 05:54:03;;;;;;;7.55;5.57;;;;;;;;;;5076424;28;20052;-70
2022/10/04 05:56:30;;;;;;;6.07;5.40;;;;;;;;;;5073495;28;20094;-68
2022/10/04 05:59:34;;;;;;;6.43;5.43;;;;;;;;;;5091606;28;20455;-68
2022/10/04 06:02:11;;;;;;;6.68;5.20;;;;;;;;;;5091995;28;20055;-68
2022/10/04 06:05:11;;;;;;;7.53;5.82;;;;;;;;;;5077614;28;20155;-69
2022/10/04 06:07:53;;;;;;;6.97;5.75;;;;;;;;;;5069657;28;20087;-70
2022/10/04 06:10:35;;;;;;;6.53;5.60;;;;;;;;;;5071288;28;20136;-69
2022/10/04 06:13:39;;;;;;;6.82;6.22;;;;;;;;;;5070547;28;20109;-68
2022/10/04 06:16:24;;;;;;;7.50;5.63;;;;;;;;;;5071429;28;20542;-69
2022/10/04 06:19:02;;;;;;;7.65;5.65;;;;;;;;;;5071423;28;20574;-70
2022/10/04 06:21:44;;;;;;;5.80;4.88;;;;;;;;;;5069824;28;20082;-68
2022/10/04 06:24:17;;;;;;;6.03;5.53;;;;;;;;;;5071202;28;20048;-69
2022/10/04 06:26:47;;;;;;;6.65;4.93;;;;;;;;;;5085679;28;20079;-69
2022/10/04 06:29:25;;;;;;;6.43;5.00;;;;;;;;;;5091162;28;20462;-69
2022/10/04 06:31:52;;;;;;;6.38;5.35;;;;;;;;;;5090542;28;20079;-69
2022/10/04 06:34:53;;;;;;;6.90;5.55;;;;;;;;;;5090633;28;20052;-67
2022/10/04 06:37:42;;;;;;;8.43;5.80;;;;;;;;;;5090083;28;20047;-69
2022/10/04 06:40:25;;;;;;;7.63;5.57;;;;;;;;;;5089042;28;20079;-69
2022/10/04 06:42:59;;;;;;;8.98;5.40;;;;;;;;;;5090992;28;20101;-69
2022/10/04 06:45:53;;;;;;;7.82;5.47;;;;;;;;;;5089837;28;20087;-68
2022/10/04 06:48:43;;;;;;;17.33;6.53;;;;;;;;;;5090347;28;20044;-68
2022/10/04 06:51:37;;;;;;;11.02;6.50;;;;;;;;;;5090884;28;20080;-66
2022/10/04 06:54:30;;;;;;;9.77;5.53;;;;;;;;;;5083528;28;20080;-66
2022/10/04 06:57:34;;;;;;;9.93;5.25;;;;;;;;;;5079954;28;20095;-69
2022/10/04 07:00:21;;;;;;;6.15;4.90;;;;;;;;;;5075812;28;20700;-66
2022/10/04 07:02:59;;;;;;;5.90;5.13;;;;;;;;;;5095146;28;20086;-67
2022/10/04 07:05:43;;;;;;;8.93;5.30;;;;;;;;;;5077271;28;20052;-69
2022/10/04 07:08:29;;;;;;;9.65;5.55;;;;;;;;;;5082761;28;20136;-69
2022/10/04 07:11:13;;;;;;;8.75;5.38;;;;;;;;;;5077260;28;20052;-69
2022/10/04 07:13:45;;;;;;;;;;;;;;;;;;5074837;28;20493;-68
2022/10/04 07:16:15;;;;;;;10.88;5.82;;;;;;;;;;5077806;28;19974;-68
2022/10/04 07:19:14;;;;;;;9.40;4.97;;;;;;;;;;5076883;28;20048;-67
2022/10/04 07:22:11;;;;;;;6.28;5.65;;;;;;;;;;5079333;28;20093;-68
2022/10/04 07:24:50;;;;;;;6.15;5.20;;;;;;;;;;5075102;28;20098;-67
2022/10/04 07:27:20;;;;;;;7.57;6.57;;;;;;;;;;5081645;28;20080;-66
2022/10/04 07:29:54;;;;;;;9.02;5.88;;;;;;;;;;5080504;28;20136;-66
2022/10/04 07:32:28;;;;;;;6.18;5.15;;;;;;;;;;5077681;28;20139;-68
2022/10/04 07:35:23;;;;;;;7.63;5.93;;;;;;;;;;5076194;28;20140;-66
2022/10/04 07:37:53;;;;;;;8.20;5.63;;;;;;;;;;5075355;28;20345;-67
2022/10/04 07:40:28;;;;;;;5.85;4.82;;;;;;;;;;5079645;28;20622;-69
2022/10/04 07:43:30;;;;;;;6.22;4.82;;;;;;;;;;5074934;28;20076;-68
2022/10/04 07:46:37;;;;;;;7.40;4.97;;;;;;;;;;5079441;28;20485;-67
2022/10/04 07:49:03;;;;;;;6.57;5.03;;;;;;;;;;5076446;28;20131;-66
2022/10/04 07:51:33;;;;;;;7.38;4.78;;;;;;;;;;5078949;28;20379;-67
2022/10/04 07:54:20;;;;;;;7.55;4.78;;;;;;;;;;5081753;28;20092;-65
2022/10/04 07:57:00;;;;;;;6.32;4.45;;;;;;;;;;5086732;28;20048;-67
2022/10/04 07:59:36;;;;;;;5.05;4.32;;;;;;;;;;5085593;28;20464;-69
2022/10/04 08:02:25;;;;;;;5.95;4.28;;;;;;;;;;5081669;28;20048;-66
2022/10/04 08:04:57;;;;;;;;;;;;;;;;;;5082357;28;20063;-67
2022/10/04 08:07:49;;;;;;;8.27;4.10;;;;;;;;;;5082404;28;19931;-67
2022/10/04 08:10:27;;;;;;;6.45;4.00;;;;;;;;;;5085089;28;20067;-66
2022/10/04 08:13:21;;;;;;;7.20;4.50;;;;;;;;;;5082687;28;20151;-66
2022/10/04 08:15:47;;;;;;;6.15;4.80;;;;;;;;;;5085129;28;20522;-66
2022/10/04 08:18:28;;;;;;;9.77;4.55;;;;;;;;;;5079161;28;20063;-66
2022/10/04 08:20:59;;;;;;;7.95;5.22;;;;;;;;;;5082339;28;20083;-66
2022/10/04 08:23:45;;;;;;;9.50;4.78;;;;;;;;;;5081375;28;20044;-66
2022/10/04 08:26:50;;;;;;;5.25;4.32;;;;;;;;;;5085040;28;20122;-67
2022/10/04 08:29:44;;;;;;;7.50;4.88;;;;;;;;;;5082000;28;20044;-67
2022/10/04 08:32:26;;;;;;;5.13;4.50;;;;;;;;;;5082664;28;20083;-66
2022/10/04 08:35:26;;;;;;;8.75;4.88;;;;;;;;;;5080065;28;20123;-66
2022/10/04 08:38:43;;;;;;;7.20;4.50;;;;;;;;;;5081711;28;20081;-67
2022/10/04 08:41:33;;;;;;;9.55;4.40;;;;;;;;;;5082465;28;20082;-66
2022/10/04 08:44:22;;;;;;;7.72;4.70;;;;;;;;;;5082208;28;20123;-67
2022/10/04 08:47:12;;;;;;;9.48;4.55;;;;;;;;;;5086137;28;20464;-66
2022/10/04 08:50:01;;;;;;;7.88;4.28;;;;;;;;;;5082834;28;20458;-67
2022/10/04 08:52:42;;;;;;;5.40;4.43;;;;;;;;;;5081713;28;20131;-67
2022/10/04 08:55:27;;;;;;;5.70;4.03;;;;;;;;;;5080431;28;20087;-66
2022/10/04 08:58:20;;;;;;;5.28;4.18;;;;;;;;;;5079565;28;20087;-66
2022/10/04 09:00:57;;;;;;;5.03;3.97;;;;;;;;;;5083640;28;20091;-66
2022/10/04 09:03:48;;;;;;;7.30;4.07;;;;;;;;;;5082085;28;20080;-67
2022/10/04 09:06:27;;;;;;;4.47;3.63;;;;;;;;;;5082418;28;20076;-67
2022/10/04 09:09:05;;;;;;;5.13;3.38;;;;;;;;;;5081545;28;20044;-66
2022/10/04 09:12:03;;;;;;;6.72;3.47;;;;;;;;;;5079772;28;20095;-67
2022/10/04 09:14:55;;;;;;;6.60;3.78;;;;;;;;;;5081148;28;20076;-66
2022/10/04 09:17:22;;;;;;;4.70;3.30;;;;;;;;;;5081391;28;20050;-66
2022/10/04 09:20:20;;;;;;;6.82;3.22;;;;;;;;;;5079811;28;20051;-67
2022/10/04 09:23:38;;;;;;;8.73;3.58;;;;;;;;;;5078824;28;20126;-67
2022/10/04 09:26:28;;;;;;;6.70;4.22;;;;;;;;;;5080105;28;20103;-66
2022/10/04 09:28:57;;;;;;;8.50;3.40;;;;;;;;;;5079905;28;20098;-67
2022/10/04 09:32:06;;;;;;;8.35;3.47;;;;;;;;;;5083178;28;20044;-66
2022/10/04 09:35:05;;;;;;;8.38;3.45;;;;;;;;;;5085288;28;20131;-66
2022/10/04 09:38:01;;;;;;;6.60;3.72;;;;;;;;;;5084764;28;20396;-66
2022/10/04 09:41:05;;;;;;;7.18;3.17;;;;;;;;;;5076503;28;20499;-66
2022/10/04 09:43:57;;;;;;;8.77;3.35;;;;;;;;;;5078240;28;20299;-66
2022/10/04 09:46:38;;;;;;;6.65;2.53;;;;;;;;;;5078937;28;20455;-67
2022/10/04 09:49:14;;;;;;;3.85;2.20;;;;;;;;;;5080899;28;20052;-67
2022/10/04 09:52:18;;;;;;;5.10;2.50;;;;;;;;;;5081052;28;20450;-66
2022/10/04 09:54:45;;;;;;;5.47;2.50;;;;;;;;;;5082128;28;20063;-66
2022/10/04 09:57:40;;;;;;;7.25;3.20;;;;;;;;;;5079975;28;20102;-67
2022/10/04 10:00:23;;;;;;;4.13;2.53;;;;;;;;;;5083967;28;20083;-66
2022/10/04 10:03:12;;;;;;;6.57;2.70;;;;;;;;;;5075620;28;20444;-66
2022/10/04 10:05:48;;;;;;;5.40;2.28;;;;;;;;;;5093845;28;20044;-66
2022/10/04 10:08:26;;;;;;;6.72;2.50;;;;;;;;;;5092214;28;20080;-66
2022/10/04 10:14:10;;;;;;;5.75;2.42;;;;;;;;;;5093474;28;20132;-66
2022/10/04 10:16:59;;;;;;;4.47;2.47;;;;;;;;;;5092333;28;20044;-66
2022/10/04 10:19:32;;;;;;;5.65;2.65;;;;;;;;;;5091943;28;20495;-66
2022/10/04 10:21:58;;;;;;;8.30;2.42;;;;;;;;;;5093611;28;20083;-66
2022/10/04 10:24:37;;;;;;;8.02;2.78;;;;;;;;;;5093555;28;20094;-66
2022/10/04 10:27:27;;;;;;;6.93;2.70;;;;;;;;;;5093468;28;20126;-66
2022/10/04 10:29:58;;;;;;;5.93;2.33;;;;;;;;;;5091985;28;20068;-66
2022/10/04 10:32:36;;;;;;;6.22;2.42;;;;;;;;;;5093498;28;20523;-66
2022/10/04 10:35:12;;;;;;;4.22;2.03;;;;;;;;;;5092858;28;20052;-67
2022/10/04 10:37:48;;;;;;;4.07;2.22;;;;;;;;;;5093435;28;20573;-66
2022/10/04 10:40:36;;;;;;;4.13;2.00;;;;;;;;;;5092802;28;20084;-66
2022/10/04 10:43:16;;;;;;;4.88;2.58;;;;;;;;;;5093289;28;20140;-67
2022/10/04 10:45:48;;;;;;;5.40;2.10;;;;;;;;;;5092921;28;20065;-67
2022/10/04 10:48:37;;;;;;;7.53;4.40;;;;;;;;;;5092915;28;20075;-66
2022/10/04 10:51:19;;;;;;;8.32;3.85;;;;;;;;;;5093061;28;20086;-66
2022/10/04 10:54:18;;;;;;;5.72;2.50;;;;;;;;;;5093021;28;20048;-67
2022/10/04 10:56:51;;;;;;;4.28;1.95;;;;;;;;;;5091689;28;20091;-66
2022/10/04 10:59:49;;;;;;;4.93;2.20;;;;;;;;;;5091375;28;20091;-67
2022/10/04 11:02:40;;;;;;;5.70;2.67;;;;;;;;;;5092287;28;20051;-66
2022/10/04 11:05:37;;;;;;;3.40;1.95;;;;;;;;;;5092549;28;20063;-66
2022/10/04 11:08:10;;;;;;;6.93;2.40;;;;;;;;;;5092502;28;20072;-67
2022/10/04 11:11:10;;;;;;;4.03;2.08;;;;;;;;;;5091864;28;20047;-67
2022/10/04 11:13:53;;;;;;;7.63;2.38;;;;;;;;;;5092902;28;20052;-66
2022/10/04 11:16:55;;;;;;;5.93;2.80;;;;;;;;;;5100930;28;20048;-66
2022/10/04 11:19:28;;;;;;;4.30;2.03;;;;;;;;;;5092443;28;20282;-65
2022/10/04 11:22:18;;;;;;;3.88;2.35;;;;;;;;;;5091117;28;20119;-66
2022/10/04 11:24:51;;;;;;;3.50;1.77;;;;;;;;;;5091305;28;20396;-66
2022/10/04 11:27:38;;;;;;;3.78;2.22;;;;;;;;;;5092083;28;20563;-66
2022/10/04 11:30:22;;;;;;;3.22;1.70;;;;;;;;;;5090945;28;20078;-67
2022/10/04 11:33:27;;;;;;;4.20;2.10;;;;;;;;;;5076098;28;20052;-66
2022/10/04 11:36:18;;;;;;;7.40;2.30;;;;;;;;;;5080801;28;20260;-66
2022/10/04 11:38:47;;;;;;;4.07;1.92;;;;;;;;;;5091079;28;20052;-67
2022/10/04 11:41:33;;;;;;;4.68;2.50;;;;;;;;;;5092555;28;20047;-68
2022/10/04 11:44:40;;;;;;;3.47;2.33;;;;;;;;;;5091356;28;20148;-67
2022/10/04 11:47:31;;;;;;;2.97;1.75;;;;;;;;;;5090978;28;20079;-66
2022/10/04 11:50:26;;;;;;;5.15;1.90;;;;;;;;;;5080618;28;20483;-67
2022/10/04 11:53:18;;;;;;;4.63;2.13;;;;;;;;;;5087395;28;20048;-66
2022/10/04 11:56:20;;;;;;;7.40;2.10;;;;;;;;;;5080716;28;20080;-67
2022/10/04 11:58:59;;;;;;;3.40;1.50;;;;;;;;;;5050665;28;20302;-67
2022/10/04 12:02:05;;;;;;;3.80;1.90;;;;;;;;;;5077173;28;20455;-67
2022/10/04 12:05:06;;;;;;;4.47;2.05;;;;;;;;;;5082710;28;20051;-66
2022/10/04 12:07:37;;;;;;;7.45;2.03;;;;;;;;;;5074908;28;20072;-66
2022/10/04 12:10:23;;;;;;;6.35;2.10;;;;;;;;;;5077483;28;20474;-67
2022/10/04 12:13:14;;;;;;;4.65;1.55;;;;;;;;;;5077235;28;20086;-67
2022/10/04 12:15:50;;;;;;;4.40;1.90;;;;;;;;;;5078285;28;20056;-67
2022/10/04 12:18:45;;;;;;;5.32;1.75;;;;;;;;;;5074422;28;20044;-65
2022/10/04 12:21:28;;;;;;;3.53;1.55;;;;;;;;;;5074518;28;20639;-67
2022/10/04 12:24:08;;;;;;;3.65;1.95;;;;;;;;;;5079982;28;20094;-67
2022/10/04 12:26:46;;;;;;;3.28;1.83;;;;;;;;;;5072907;28;20075;-71
2022/10/04 12:29:35;;;;;;;2.03;1.30;;;;;;;;;;5077451;28;20052;-76
2022/10/04 12:32:48;;;;;;;2.80;1.52;;;;;;;;;;5079767;28;20134;-76
2022/10/04 12:35:40;;;;;;;4.15;1.63;;;;;;;;;;5080087;28;20131;-67
2022/10/04 12:38:16;;;;;;;4.68;1.52;;;;;;;;;;5079882;28;20080;-67
2022/10/04 12:41:01;;;;;;;3.53;1.40;;;;;;;;;;5079160;28;20677;-75
2022/10/04 12:43:43;;;;;;;4.75;1.33;;;;;;;;;;5080415;28;20056;-74
2022/10/04 12:46:34;;;;;;;3.78;1.80;;;;;;;;;;5087390;28;20083;-77
2022/10/04 12:49:25;;;;;;;2.65;1.20;;;;;;;;;;5080086;28;20093;-70
2022/10/04 12:52:20;;;;;;;2.55;1.30;;;;;;;;;;5076212;28;20058;-70
2022/10/04 12:54:59;;;;;;;2.88;1.52;;;;;;;;;;5085914;28;20060;-72
2022/10/04 12:57:29;;;;;;;3.33;1.13;;;;;;;;;;5087372;28;20075;-70
2022/10/04 12:59:56;;;;;;;2.10;1.05;;;;;;;;;;5080111;28;20113;-71
2022/10/04 13:02:32;;;;;;;3.45;1.30;;;;;;;;;;5085512;28;20048;-74
2022/10/04 13:05:10;;;;;;;3.90;1.40;;;;;;;;;;5083841;28;20044;-77
2022/10/04 13:07:58;;;;;;;2.45;0.93;;;;;;;;;;5079936;28;20056;-77
2022/10/04 13:11:04;;;;;;;2.45;1.20;;;;;;;;;;5087077;28;20101;-77
2022/10/04 13:13:52;;;;;;;3.15;1.10;;;;;;;;;;5080204;28;20048;-73
2022/10/04 13:17:07;;;;;;;4.38;1.20;;;;;;;;;;5082750;28;20048;-78
2022/10/04 13:20:16;;;;;;;2.35;1.00;;;;;;;;;;5086186;28;20059;-71
2022/10/04 13:22:59;;;;;;;2.03;1.38;;;;;;;;;;5067678;28;20044;-71
2022/10/04 13:25:29;;;;;;;2.95;1.55;;;;;;;;;;5082451;28;20075;-71
2022/10/04 13:28:26;;;;;;;3.15;1.58;;;;;;;;;;5080051;28;20503;-74
2022/10/04 13:31:47;;;;;;;6.45;1.63;;;;;;;;;;5079854;28;20060;-72
2022/10/04 13:34:26;;;;;;;2.38;1.25;;;;;;;;;;5085042;28;20132;-70
2022/10/04 13:36:56;;;;;;;2.22;1.23;;;;;;;;;;5082829;28;20127;-69
2022/10/04 13:39:41;;;;;;;2.90;1.67;;;;;;;;;;5078740;28;20079;-68
2022/10/04 13:42:21;;;;;;;2.83;1.58;;;;;;;;;;5079959;28;20130;-69
2022/10/04 13:44:54;;;;;;;4.15;1.33;;;;;;;;;;5084259;28;20170;-78
2022/10/04 13:47:55;;;;;;;2.70;1.13;;;;;;;;;;5084059;28;20053;-73
2022/10/04 13:50:22;;;;;;;2.55;1.13;;;;;;;;;;5078405;28;20079;-75
2022/10/04 13:59:07;;;;;;;4.53;1.42;;;;;;;;;;5077635;28;20140;-68
2022/10/04 14:01:42;;;;;;;2.75;1.40;;;;;;;;;;5081678;28;20136;-67
2022/10/04 14:04:09;;;;;;;2.47;1.20;;;;;;;;;;5080408;28;20138;-67
2022/10/04 14:07:15;;;;;;;2.58;1.30;;;;;;;;;;5078584;28;20044;-66
2022/10/04 14:10:09;;;;;;;3.35;1.38;;;;;;;;;;5081424;28;20051;-66
2022/10/04 14:12:40;;;;;;;4.18;1.23;;;;;;;;;;5079186;28;20068;-66
2022/10/04 14:15:40;;;;;;;2.95;1.80;;;;;;;;;;5077449;28;20072;-67
2022/10/04 14:18:40;;;;;;;2.50;1.25;;;;;;;;;;5077306;28;20045;-67
2022/10/04 14:21:30;;;;;;;2.80;1.40;;;;;;;;;;5081291;28;20083;-67
2022/10/04 14:24:22;;;;;;;3.47;1.50;;;;;;;;;;5078625;28;20048;-67
2022/10/04 14:27:26;;;;;;;3.60;1.05;;;;;;;;;;5078504;28;20136;-67
2022/10/04 14:29:59;;;;;;;3.03;1.30;;;;;;;;;;5078308;28;20059;-67
2022/10/04 14:32:56;;;;;;;4.30;1.20;;;;;;;;;;5081467;28;20109;-67
2022/10/04 14:35:41;;;;;;;2.38;1.25;;;;;;;;;;5081363;28;20045;-67
2022/10/04 14:38:14;;;;;;;1.90;1.30;;;;;;;;;;5079728;28;20597;-67
2022/10/04 14:41:00;;;;;;;2.90;1.15;;;;;;;;;;5079481;28;20055;-67
2022/10/04 14:43:52;;;;;;;4.15;1.45;;;;;;;;;;5079164;28;20088;-67
2022/10/04 14:46:37;;;;;;;4.40;1.30;;;;;;;;;;5081748;28;20073;-73
2022/10/04 14:49:20;;;;;;;2.60;1.00;;;;;;;;;;5079563;28;20131;-75
2022/10/04 14:52:03;;;;;;;3.67;1.17;;;;;;;;;;5082497;28;20100;-66
2022/10/04 14:54:52;;;;;;;3.63;1.20;;;;;;;;;;5079156;28;20080;-66
2022/10/04 14:57:48;;;;;;;2.28;1.10;;;;;;;;;;5080682;28;20080;-65
2022/10/04 15:00:22;;;;;;;2.17;1.17;;;;;;;;;;5078203;28;20078;-72
2022/10/04 15:03:14;;;;;;;2.55;1.33;;;;;;;;;;5083662;28;20436;-73
2022/10/04 15:05:53;;;;;;;2.42;1.40;;;;;;;;;;5076358;28;20076;-71
2022/10/04 15:08:20;;;;;;;4.57;1.42;;;;;;;;;;5080491;28;20079;-72
2022/10/04 15:10:58;;;;;;;2.35;1.52;;;;;;;;;;5076608;28;20079;-72
2022/10/04 15:13:32;;;;;;;2.00;1.50;;;;;;;;;;5079805;28;20132;-77
2022/10/04 15:16:38;;;;;;;2.40;1.40;;;;;;;;;;5081455;28;20076;-75
2022/10/04 15:19:11;;;;;;;2.55;1.40;;;;;;;;;;5082187;28;20070;-70
2022/10/04 15:22:03;;;;;;;3.45;1.30;;;;;;;;;;5062823;28;20140;-70
2022/10/04 15:24:47;;;;;;;6.65;1.98;;;;;;;;;;5049230;28;20435;-72
2022/10/04 15:27:33;;;;;;;2.47;1.63;;;;;;;;;;5078044;28;20047;-72
2022/10/04 15:30:22;;;;;;;5.10;1.30;;;;;;;;;;5079908;28;20414;-68
2022/10/04 15:33:37;;;;;;;2.03;1.30;;;;;;;;;;5082252;28;20048;-69
2022/10/04 15:36:38;;;;;;;1.90;1.30;;;;;;;;;;5078424;28;20079;-68
2022/10/04 15:39:27;;;;;;;2.78;1.20;;;;;;;;;;5080589;28;20392;-70
2022/10/04 15:42:07;;;;;;;1.38;1.15;;;;;;;;;;5083344;28;20118;-67
2022/10/04 15:45:19;;;;;;;3.25;1.20;;;;;;;;;;5062665;28;20079;-67
2022/10/04 15:47:54;;;;;;;4.70;1.90;;;;;;;;;;5080352;28;20080;-68
2022/10/04 15:50:22;;;;;;;6.43;3.90;;;;;;;;;;5078918;28;20456;-66
2022/10/04 15:53:13;;;;;;;4.82;2.55;;;;;;;;;;5079544;28;20040;-74
2022/10/04 15:55:51;;;;;;;4.95;2.92;;;;;;;;;;5079214;28;20049;-72
2022/10/04 15:58:34;;;;;;;3.58;1.60;;;;;;;;;;5087199;28;20057;-72
2022/10/04 16:01:18;;;;;;;4.00;1.98;;;;;;;;;;5078862;28;20044;-71
2022/10/04 16:04:04;;;;;;;5.72;3.63;;;;;;;;;;5077954;28;20052;-72
2022/10/04 16:06:57;;;;;;;4.25;2.15;;;;;;;;;;5082138;28;20044;-70
2022/10/04 16:09:33;;;;;;;3.22;1.58;;;;;;;;;;5080108;28;20491;-67
2022/10/04 16:12:54;;;;;;;2.00;1.33;;;;;;;;;;5084006;28;20044;-69
2022/10/04 16:15:36;;;;;;;3.67;1.30;;;;;;;;;;5040619;28;20107;-70
2022/10/04 16:18:27;;;;;;;3.63;1.20;;;;;;;;;;5081378;28;20084;-70
2022/10/04 16:21:07;;;;;;;3.03;1.63;;;;;;;;;;5080089;28;20389;-71